createdAt,value
2023-08-03T00:02:22.313Z,0.70
2023-08-03T00:04:55.020Z,0.68
2023-08-03T00:07:27.549Z,0.80
2023-08-03T00:10:00.205Z,0.60
2023-08-03T00:12:32.716Z,0.93
2023-08-03T00:15:05.801Z,0.80
2023-08-03T00:17:38.968Z,1.23
2023-08-03T00:20:11.959Z,1.02
2023-08-03T00:22:47.396Z,1.33
2023-08-03T00:25:19.867Z,1.13
2023-08-03T00:27:52.284Z,1.40
2023-08-03T00:30:25.077Z,1.98
2023-08-03T00:32:57.634Z,2.38
2023-08-03T00:35:30.137Z,2.40
2023-08-03T00:38:03.976Z,2.00
2023-08-03T00:40:36.492Z,2.40
2023-08-03T00:43:09.106Z,2.85
2023-08-03T00:45:41.631Z,3.28
2023-08-03T00:48:15.144Z,2.08
2023-08-03T00:50:47.649Z,2.60
2023-08-03T00:53:20.166Z,2.33
2023-08-03T00:55:52.670Z,2.42
2023-08-03T00:58:25.273Z,2.72
2023-08-03T01:00:57.966Z,2.90
2023-08-03T01:03:30.573Z,2.60
2023-08-03T01:06:03.094Z,2.80
2023-08-03T01:08:35.528Z,2.33
2023-08-03T01:11:08.037Z,2.60
2023-08-03T01:13:40.672Z,3.38
2023-08-03T01:16:14.059Z,3.13
2023-08-03T01:18:46.558Z,3.50
2023-08-03T01:21:21.327Z,2.88
2023-08-03T01:23:53.945Z,2.72
2023-08-03T01:26:26.691Z,2.67
2023-08-03T01:28:59.174Z,2.35
2023-08-03T01:31:32.673Z,2.30
2023-08-03T01:34:05.933Z,2.25
2023-08-03T01:36:38.417Z,1.95
2023-08-03T01:39:11.162Z,1.88
2023-08-03T01:41:44.289Z,2.25
2023-08-03T01:44:23.355Z,1.85
2023-08-03T01:46:57.700Z,1.42
2023-08-03T01:49:32.479Z,1.45
2023-08-03T01:52:04.993Z,1.42
2023-08-03T01:54:37.510Z,1.85
2023-08-03T01:57:10.075Z,1.40
2023-08-03T01:59:42.617Z,1.27
2023-08-03T02:02:16.088Z,1.30
2023-08-03T02:04:48.584Z,0.90
2023-08-03T02:07:43.095Z,1.20
2023-08-03T02:10:16.117Z,1.70
2023-08-03T02:12:49.050Z,2.28
2023-08-03T02:15:21.687Z,1.88
2023-08-03T02:17:54.247Z,1.85
2023-08-03T02:20:26.764Z,2.67
2023-08-03T02:22:59.176Z,2.33
2023-08-03T02:25:31.660Z,2.42
2023-08-03T02:28:04.412Z,2.00
2023-08-03T02:30:38.715Z,2.33
2023-08-03T02:33:11.156Z,2.40
2023-08-03T02:35:43.730Z,2.00
2023-08-03T02:38:16.263Z,2.17
2023-08-03T02:40:48.740Z,2.72
2023-08-03T02:43:21.263Z,2.45
2023-08-03T02:45:54.104Z,3.42
2023-08-03T02:48:26.602Z,2.05
2023-08-03T02:51:00.658Z,1.90
2023-08-03T02:53:34.640Z,2.20
2023-08-03T02:56:07.159Z,2.83
2023-08-03T02:58:39.649Z,2.63
2023-08-03T03:01:12.438Z,2.13
2023-08-03T03:03:45.262Z,1.95
2023-08-03T03:06:18.298Z,1.98
2023-08-03T03:08:50.776Z,2.45
2023-08-03T03:11:23.332Z,2.05
2023-08-03T03:13:55.756Z,2.38
2023-08-03T03:16:28.352Z,1.92
2023-08-03T03:19:00.881Z,2.03
2023-08-03T03:21:33.359Z,2.20
2023-08-03T03:24:05.966Z,1.63
2023-08-03T03:26:38.484Z,1.80
2023-08-03T03:29:11.009Z,2.10
2023-08-03T03:31:43.945Z,1.73
2023-08-03T03:34:16.729Z,2.03
2023-08-03T03:36:51.578Z,1.90
2023-08-03T03:39:24.137Z,2.00
2023-08-03T03:41:56.628Z,1.85
2023-08-03T03:44:29.193Z,1.80
2023-08-03T03:47:01.747Z,1.45
2023-08-03T03:49:34.296Z,1.60
2023-08-03T03:52:07.314Z,2.05
2023-08-03T03:54:39.808Z,1.83
2023-08-03T03:57:12.339Z,1.45
2023-08-03T03:59:44.804Z,1.80
2023-08-03T04:02:17.313Z,1.55
2023-08-03T04:04:49.739Z,1.63
2023-08-03T04:07:22.252Z,1.65
2023-08-03T04:09:54.721Z,2.10
2023-08-03T04:12:27.167Z,1.60
2023-08-03T04:14:59.656Z,1.45
2023-08-03T04:17:32.167Z,1.88
2023-08-03T04:20:07.698Z,1.73
2023-08-03T04:22:40.149Z,1.55
2023-08-03T04:25:12.970Z,1.50
2023-08-03T04:27:45.459Z,2.10
2023-08-03T04:30:18.126Z,1.80
2023-08-03T04:32:50.660Z,1.77
2023-08-03T04:35:23.155Z,1.30
2023-08-03T04:37:55.567Z,1.33
2023-08-03T04:40:28.095Z,1.17
2023-08-03T04:43:00.601Z,1.30
2023-08-03T04:45:33.143Z,1.75
2023-08-03T04:48:05.757Z,1.58
2023-08-03T04:50:39.086Z,1.40
2023-08-03T04:53:11.591Z,1.40
2023-08-03T04:55:46.137Z,1.20
2023-08-03T04:58:18.687Z,1.10
2023-08-03T05:00:51.472Z,1.35
2023-08-03T05:03:24.087Z,1.60
2023-08-03T05:05:56.593Z,1.65
2023-08-03T05:08:29.158Z,1.10
2023-08-03T05:11:01.667Z,1.00
2023-08-03T05:13:34.292Z,1.00
2023-08-03T05:16:06.863Z,1.00
2023-08-03T05:18:39.870Z,1.00
2023-08-03T05:21:12.390Z,1.00
2023-08-03T05:23:48.456Z,1.10
2023-08-03T05:26:20.924Z,1.13
2023-08-03T05:28:53.597Z,1.05
2023-08-03T05:31:27.370Z,0.77
2023-08-03T05:33:59.928Z,0.90
2023-08-03T05:36:32.619Z,1.02
2023-08-03T05:39:06.057Z,0.80
2023-08-03T05:41:40.527Z,0.70
2023-08-03T05:44:14.470Z,1.00
2023-08-03T05:46:47.557Z,1.23
2023-08-03T05:49:20.307Z,0.80
2023-08-03T05:51:52.956Z,1.15
2023-08-03T05:54:25.425Z,0.90
2023-08-03T05:56:58.192Z,0.80
2023-08-03T05:59:30.675Z,1.00
2023-08-03T06:02:11.985Z,0.80
2023-08-03T06:04:44.963Z,0.80
2023-08-03T06:07:17.951Z,1.15
2023-08-03T06:09:50.904Z,0.80
2023-08-03T06:12:23.790Z,0.90
2023-08-03T06:14:56.314Z,0.88
2023-08-03T06:17:28.896Z,0.90
2023-08-03T06:20:01.419Z,1.13
2023-08-03T06:22:33.977Z,1.40
2023-08-03T06:25:11.244Z,0.82
2023-08-03T06:27:43.810Z,1.10
2023-08-03T06:30:18.425Z,0.90
2023-08-03T06:32:51.367Z,1.08
2023-08-03T06:35:33.146Z,0.88
2023-08-03T06:38:08.790Z,0.80
2023-08-03T06:40:42.568Z,0.90
2023-08-03T06:43:15.669Z,1.20
2023-08-03T06:45:48.240Z,1.42
2023-08-03T06:48:20.961Z,0.90
2023-08-03T06:50:54.833Z,0.82
2023-08-03T06:53:27.373Z,0.77
2023-08-03T06:56:00.002Z,1.10
2023-08-03T06:58:33.196Z,0.93
2023-08-03T07:01:05.758Z,0.82
2023-08-03T07:03:38.452Z,0.80
2023-08-03T07:06:10.972Z,0.68
2023-08-03T07:08:43.436Z,0.75
2023-08-03T07:11:15.908Z,0.73
2023-08-03T07:13:48.303Z,0.90
2023-08-03T07:16:22.319Z,0.73
2023-08-03T07:18:54.805Z,0.80
2023-08-03T07:21:27.270Z,0.90
2023-08-03T07:23:59.748Z,1.42
2023-08-03T07:26:32.242Z,1.05
2023-08-03T07:29:04.644Z,0.80
2023-08-03T07:31:37.140Z,1.20
2023-08-03T07:34:09.629Z,1.02
2023-08-03T07:36:42.070Z,1.50
2023-08-03T07:39:14.552Z,0.90
2023-08-03T07:41:47.119Z,0.80
2023-08-03T07:44:20.066Z,0.85
2023-08-03T07:46:52.518Z,1.05
2023-08-03T07:49:24.986Z,0.73
2023-08-03T07:51:57.613Z,1.00
2023-08-03T07:54:31.784Z,0.70
2023-08-03T07:57:05.227Z,1.20
2023-08-03T07:59:38.035Z,0.82
2023-08-03T08:02:10.638Z,1.05
2023-08-03T08:04:43.214Z,1.02
2023-08-03T08:07:17.079Z,0.90
2023-08-03T08:09:49.584Z,1.15
2023-08-03T08:12:22.358Z,0.93
2023-08-03T08:14:54.848Z,1.00
2023-08-03T08:17:27.393Z,1.08
2023-08-03T08:20:00.772Z,0.93
2023-08-03T08:22:33.349Z,1.58
2023-08-03T08:25:06.478Z,0.90
2023-08-03T08:27:39.272Z,0.95
2023-08-03T08:30:12.022Z,0.95
2023-08-03T08:32:44.545Z,1.52
2023-08-03T08:35:17.085Z,1.10
2023-08-03T08:37:49.553Z,1.55
2023-08-03T08:40:21.992Z,0.60
2023-08-03T08:42:55.387Z,0.90
2023-08-03T08:45:28.217Z,0.73
2023-08-03T08:51:07.569Z,0.70
2023-08-03T08:53:28.699Z,0.60
2023-08-03T09:01:12.041Z,0.55
2023-08-03T09:06:32.756Z,0.65
2023-08-03T09:09:06.141Z,0.50
2023-08-03T09:11:42.276Z,0.77
2023-08-03T09:14:15.653Z,0.70
2023-08-03T09:16:48.326Z,0.85
2023-08-03T09:19:37.655Z,0.50
2023-08-03T09:22:10.142Z,0.82
2023-08-03T09:24:42.704Z,0.50
2023-08-03T09:27:18.173Z,0.70
2023-08-03T09:32:35.473Z,0.45
2023-08-03T09:35:18.122Z,1.13
2023-08-03T09:37:53.022Z,0.73
2023-08-03T09:40:25.965Z,0.82
2023-08-03T09:43:02.169Z,0.80
2023-08-03T09:45:37.510Z,0.70
2023-08-03T09:48:11.782Z,0.75
2023-08-03T09:50:52.286Z,1.50
2023-08-03T09:53:46.129Z,1.30
2023-08-03T09:56:23.010Z,0.98
2023-08-03T09:59:00.438Z,1.42
2023-08-03T10:01:34.771Z,1.38
2023-08-03T10:04:11.831Z,1.00
2023-08-03T10:06:47.869Z,1.38
2023-08-03T10:09:25.797Z,1.00
2023-08-03T10:12:04.934Z,0.85
2023-08-03T10:14:42.865Z,1.10
2023-08-03T10:17:15.966Z,0.75
2023-08-03T10:19:49.194Z,0.65
2023-08-03T10:22:21.669Z,0.60
2023-08-03T10:25:18.753Z,0.90
2023-08-03T10:28:14.535Z,0.55
2023-08-03T10:31:11.816Z,0.55
2023-08-03T10:33:47.558Z,0.70
2023-08-03T10:36:29.395Z,0.70
2023-08-03T10:41:39.176Z,0.68
2023-08-03T10:44:13.400Z,1.02
2023-08-03T10:46:50.861Z,0.75
2023-08-03T10:49:29.108Z,0.90
2023-08-03T10:52:25.920Z,0.55
2023-08-03T10:55:00.419Z,0.85
2023-08-03T10:57:33.612Z,0.90
2023-08-03T11:00:08.609Z,0.90
2023-08-03T11:02:43.895Z,1.00
2023-08-03T11:05:16.717Z,0.85
2023-08-03T11:07:49.574Z,0.93
2023-08-03T11:10:23.494Z,0.90
2023-08-03T11:12:57.340Z,1.20
2023-08-03T11:15:29.895Z,1.17
2023-08-03T11:18:02.396Z,1.55
2023-08-03T11:20:42.588Z,1.13
2023-08-03T11:23:15.185Z,1.52
2023-08-03T11:25:47.727Z,1.00
2023-08-03T11:28:20.220Z,1.10
2023-08-03T11:30:52.709Z,1.45
2023-08-03T11:33:25.181Z,1.25
2023-08-03T11:35:57.949Z,1.17
2023-08-03T11:38:30.378Z,1.30
2023-08-03T11:41:03.044Z,1.30
2023-08-03T11:43:35.525Z,1.30
2023-08-03T11:46:08.411Z,1.10
2023-08-03T11:48:45.460Z,1.13
2023-08-03T11:51:20.352Z,0.80
2023-08-03T11:53:54.512Z,1.20
2023-08-03T11:56:38.253Z,1.40
2023-08-03T11:59:15.964Z,1.15
2023-08-03T12:01:50.807Z,1.00
2023-08-03T12:07:19.918Z,1.10
2023-08-03T12:09:52.988Z,0.80
2023-08-03T12:12:26.564Z,0.80
2023-08-03T12:15:00.753Z,0.80
2023-08-03T12:17:33.397Z,0.80
2023-08-03T12:20:06.910Z,0.60
2023-08-03T12:22:39.300Z,0.65
2023-08-03T12:25:11.753Z,0.73
2023-08-03T12:27:44.225Z,0.60
2023-08-03T12:30:16.872Z,0.73
2023-08-03T12:32:49.456Z,0.68
2023-08-03T12:35:22.065Z,0.60
2023-08-03T12:40:29.941Z,0.95
2023-08-03T12:43:02.424Z,1.30
2023-08-03T12:45:35.016Z,1.48
2023-08-03T12:48:16.804Z,0.80
2023-08-03T12:50:50.155Z,0.93
2023-08-03T12:53:22.647Z,0.85
2023-08-03T12:55:55.782Z,1.10
2023-08-03T12:58:28.542Z,1.15
2023-08-03T13:01:01.346Z,1.20
2023-08-03T13:03:34.154Z,1.30
2023-08-03T13:06:06.824Z,1.50
2023-08-03T13:08:39.399Z,1.02
2023-08-03T13:11:12.391Z,1.63
2023-08-03T13:13:45.030Z,1.60
2023-08-03T13:16:17.684Z,1.05
2023-08-03T13:18:50.501Z,1.00
2023-08-03T13:21:23.333Z,0.95
2023-08-03T13:23:55.843Z,1.15
2023-08-03T13:26:30.190Z,1.33
2023-08-03T13:29:03.182Z,1.20
2023-08-03T13:31:35.708Z,1.40
2023-08-03T13:34:08.231Z,1.20
2023-08-03T13:36:40.750Z,1.30
2023-08-03T13:39:13.205Z,1.25
2023-08-03T13:41:45.756Z,1.58
2023-08-03T13:44:18.314Z,2.00
2023-08-03T13:46:50.948Z,1.92
2023-08-03T13:49:23.414Z,2.25
2023-08-03T13:51:55.987Z,1.77
2023-08-03T13:54:28.843Z,1.70
2023-08-03T13:57:01.367Z,1.40
2023-08-03T13:59:33.977Z,2.08
2023-08-03T14:02:07.340Z,1.88
2023-08-03T14:04:41.111Z,1.58
2023-08-03T14:23:04.158Z,1.65
2023-08-03T14:30:47.602Z,2.35
2023-08-03T14:33:21.431Z,1.98
2023-08-03T14:35:53.985Z,1.20
2023-08-03T14:38:26.821Z,1.40
2023-08-03T14:40:59.257Z,1.25
2023-08-03T14:43:31.726Z,1.20
2023-08-03T14:46:04.828Z,1.30
2023-08-03T14:48:37.761Z,1.50
2023-08-03T14:58:53.635Z,1.23
2023-08-03T15:01:28.857Z,1.60
2023-08-03T15:04:04.640Z,1.60
2023-08-03T15:06:41.273Z,1.42
2023-08-03T15:09:13.929Z,1.20
2023-08-03T15:11:46.629Z,1.35
2023-08-03T15:14:24.191Z,1.65
2023-08-03T15:17:16.023Z,0.90
2023-08-03T15:19:49.818Z,1.23
2023-08-03T15:22:23.148Z,1.30
2023-08-03T15:24:56.558Z,1.02
2023-08-03T15:27:30.283Z,1.30
2023-08-03T15:30:32.353Z,1.60
2023-08-03T15:35:39.487Z,1.08
2023-08-03T15:38:14.489Z,1.33
2023-08-03T15:41:02.111Z,1.27
2023-08-03T15:43:40.250Z,1.63
2023-08-03T15:46:16.868Z,1.30
2023-08-03T15:51:32.980Z,1.40
2023-08-03T15:54:14.624Z,1.20
2023-08-03T15:59:21.092Z,1.13
2023-08-03T16:01:53.735Z,1.00
2023-08-03T16:04:26.296Z,1.05
2023-08-03T16:06:58.819Z,1.27
2023-08-03T16:09:31.235Z,1.50
2023-08-03T16:12:03.978Z,0.93
2023-08-03T16:14:36.401Z,1.40
2023-08-03T16:17:11.469Z,1.45
2023-08-03T16:19:44.126Z,1.48
2023-08-03T16:22:16.602Z,1.50
2023-08-03T16:24:52.411Z,1.30
2023-08-03T16:27:24.877Z,1.80
2023-08-03T16:30:02.659Z,1.23
2023-08-03T16:32:36.641Z,1.13
2023-08-03T16:35:09.647Z,1.45
2023-08-03T16:37:42.403Z,0.95
2023-08-03T16:40:14.933Z,1.10
2023-08-03T16:42:51.245Z,0.90
2023-08-03T16:45:24.215Z,1.33
2023-08-03T16:47:57.855Z,1.60
2023-08-03T16:50:31.897Z,1.52
2023-08-03T16:53:04.457Z,1.17
2023-08-03T16:55:36.909Z,1.40
2023-08-03T16:58:09.815Z,1.30
2023-08-03T17:00:42.412Z,1.48
2023-08-03T17:03:14.923Z,1.88
2023-08-03T17:05:47.409Z,1.50
2023-08-03T17:08:20.538Z,1.52
2023-08-03T17:10:55.341Z,1.17
2023-08-03T17:13:27.906Z,1.60
2023-08-03T17:16:05.165Z,1.65
2023-08-03T17:18:38.777Z,1.27
2023-08-03T17:21:11.368Z,1.17
2023-08-03T17:23:43.942Z,1.02
2023-08-03T17:26:16.550Z,1.20
2023-08-03T17:28:49.006Z,1.23
2023-08-03T17:31:21.421Z,0.90
2023-08-03T17:33:53.960Z,1.02
2023-08-03T17:36:26.651Z,1.13
2023-08-03T17:38:59.451Z,1.02
2023-08-03T17:41:32.136Z,0.95
2023-08-03T17:44:04.786Z,1.38
2023-08-03T17:46:39.461Z,1.08
2023-08-03T17:49:12.050Z,1.42
2023-08-03T17:51:44.642Z,2.08
2023-08-03T17:54:17.124Z,1.38
2023-08-03T17:56:52.044Z,2.08
2023-08-03T17:59:24.885Z,1.20
2023-08-03T18:01:58.480Z,1.38
2023-08-03T18:04:33.349Z,1.10
2023-08-03T18:07:06.001Z,1.10
2023-08-03T18:09:38.600Z,1.10
2023-08-03T18:12:11.108Z,1.27
2023-08-03T18:14:43.653Z,1.05
2023-08-03T18:17:17.455Z,1.00
2023-08-03T18:19:50.084Z,1.08
2023-08-03T18:22:22.554Z,1.40
2023-08-03T18:24:55.163Z,0.93
2023-08-03T18:27:27.607Z,0.98
2023-08-03T18:30:00.175Z,1.23
2023-08-03T18:32:32.705Z,1.50
2023-08-03T18:35:05.690Z,1.33
2023-08-03T18:37:38.237Z,1.33
2023-08-03T18:40:11.299Z,1.65
2023-08-03T18:42:43.856Z,1.20
2023-08-03T18:45:16.387Z,0.90
2023-08-03T18:47:48.895Z,1.13
2023-08-03T18:50:21.451Z,1.40
2023-08-03T18:52:53.964Z,1.52
2023-08-03T18:55:26.468Z,1.23
2023-08-03T18:57:58.940Z,1.27
2023-08-03T19:00:31.435Z,1.70
2023-08-03T19:03:04.233Z,2.05
2023-08-03T19:05:38.827Z,1.27
2023-08-03T19:08:11.430Z,0.90
2023-08-03T19:10:43.928Z,1.00
2023-08-03T19:13:17.818Z,1.02
2023-08-03T19:15:50.786Z,1.10
2023-08-03T19:18:23.934Z,1.00
2023-08-03T19:20:58.629Z,1.05
2023-08-03T19:23:31.235Z,1.20
2023-08-03T19:26:03.763Z,1.40
2023-08-03T19:28:36.643Z,1.50
2023-08-03T19:31:09.134Z,1.45
2023-08-03T19:33:41.914Z,0.88
2023-08-03T19:36:15.272Z,0.90
2023-08-03T19:38:49.779Z,1.45
2023-08-03T19:41:22.359Z,1.17
2023-08-03T19:43:55.047Z,1.40
2023-08-03T19:46:27.686Z,1.83
2023-08-03T19:49:00.341Z,1.30
2023-08-03T20:09:46.839Z,1.30
2023-08-03T20:12:19.311Z,1.70
2023-08-03T20:15:10.762Z,1.23
2023-08-03T20:17:43.713Z,1.08
2023-08-03T20:20:16.393Z,1.63
2023-08-03T20:22:48.895Z,1.20
2023-08-03T20:25:21.619Z,1.25
2023-08-03T20:27:54.063Z,1.33
2023-08-03T20:30:26.546Z,1.20
2023-08-03T20:33:04.816Z,1.27
2023-08-03T20:35:37.978Z,1.20
2023-08-03T20:38:10.503Z,1.40
2023-08-03T20:45:53.962Z,1.13
2023-08-03T20:51:05.285Z,1.40
2023-08-03T20:53:37.848Z,1.15
2023-08-03T20:56:10.905Z,1.38
2023-08-03T20:58:46.000Z,1.52
2023-08-03T21:01:18.564Z,1.58
2023-08-03T21:03:51.294Z,1.48
2023-08-03T21:06:23.839Z,1.60
2023-08-03T21:08:56.342Z,1.25
2023-08-03T21:11:28.809Z,1.25
2023-08-03T21:14:01.368Z,1.15
2023-08-03T21:16:34.313Z,1.70
2023-08-03T21:19:10.260Z,1.75
2023-08-03T21:21:43.696Z,1.45
2023-08-03T21:24:16.272Z,1.38
2023-08-03T21:26:48.766Z,1.10
2023-08-03T21:29:21.195Z,1.52
2023-08-03T21:31:53.699Z,1.40
2023-08-03T21:34:26.151Z,1.38
2023-08-03T21:36:58.633Z,1.65
2023-08-03T21:39:31.162Z,1.50
2023-08-03T21:42:05.406Z,1.75
2023-08-03T21:44:41.029Z,1.65
2023-08-03T21:47:14.016Z,1.80
2023-08-03T21:49:48.117Z,1.67
2023-08-03T21:52:20.567Z,1.50
2023-08-03T21:54:53.092Z,1.88
2023-08-03T21:57:25.572Z,1.55
2023-08-03T21:59:58.050Z,1.80
2023-08-03T22:02:30.644Z,1.80
2023-08-03T22:05:06.546Z,2.33
2023-08-03T22:07:40.084Z,2.25
2023-08-03T22:10:14.182Z,1.98
2023-08-03T22:12:51.372Z,1.90
2023-08-03T22:15:24.012Z,2.15
2023-08-03T22:17:56.448Z,1.90
2023-08-03T22:20:29.120Z,1.98
2023-08-03T22:23:01.549Z,2.00
2023-08-03T22:25:36.044Z,2.13
2023-08-03T22:28:08.520Z,1.98
2023-08-03T22:30:41.374Z,2.70
2023-08-03T22:33:13.859Z,2.17
2023-08-03T22:35:46.432Z,2.15
2023-08-03T22:38:18.935Z,2.70
2023-08-03T22:40:59.066Z,2.30
2023-08-03T22:43:31.734Z,2.63
2023-08-03T22:46:04.623Z,2.13
2023-08-03T22:48:38.319Z,2.50
2023-08-03T22:51:17.770Z,2.15
2023-08-03T22:53:50.258Z,1.98
2023-08-03T22:56:22.714Z,2.20
2023-08-03T22:58:55.506Z,2.45
2023-08-03T23:01:28.270Z,2.55
2023-08-03T23:04:01.019Z,2.13
2023-08-03T23:06:33.766Z,2.75
2023-08-03T23:09:06.220Z,2.40
2023-08-03T23:11:38.727Z,2.05
2023-08-03T23:14:11.645Z,2.55
2023-08-03T23:16:46.247Z,2.78
2023-08-03T23:19:19.386Z,2.50
2023-08-03T23:21:51.792Z,2.97
2023-08-03T23:24:24.325Z,2.85
2023-08-03T23:26:56.858Z,2.63
2023-08-03T23:29:29.529Z,2.28
2023-08-03T23:32:02.025Z,2.70
2023-08-03T23:34:34.493Z,2.83
2023-08-03T23:37:07.398Z,2.75
2023-08-03T23:39:39.946Z,2.30
2023-08-03T23:42:12.458Z,3.40
2023-08-03T23:44:44.938Z,3.30
2023-08-03T23:47:17.609Z,2.47
2023-08-03T23:49:50.127Z,3.97
2023-08-03T23:52:22.667Z,3.05
2023-08-03T23:54:55.474Z,2.90
2023-08-03T23:57:27.962Z,2.85
